^^
Station Historical Data
Daily Summary for May 18, 2018 Units:  English    Metric   Both
« Previous Day
Next Day »
Daily Weekly Monthly Yearly Custom
  High: Low: Average:
Temperature: TemperatureF °F 62.2 °F 68.2 °F
Dew Point: DewpointF °F 61.9 °F 64.8 °F
Humidity: Humidity% 65% 89%
Wind Speed: WindSpeedMPHmph 0.0mph 1mph
Wind Gust: WindSpeedGustMPHmph - -
Wind- - SE
Pressure: PressureIn in 30.24 in -
Precipitation: 0.93 in    
Historical Graphs
 
 
Tabular Data for May 18, 2018
Time Temperature Dew Point Pressure Wind Wind Speed Wind Gust Humidity Rainfall Rate (Hourly)
TemperatureF °F DewpointF °F PressureIn in Calm     Humidity% HourlyPrecipIn in
00:13 64.8 °F 64.4 °F 30.27 in Calm     99% 0.30 in
00:23 64.8 °F 64.4 °F 30.27 in Calm     99% 0.27 in
00:28 64.9 °F 64.6 °F 30.27 in Calm     99% 0.26 in
00:33 64.8 °F 64.4 °F 30.27 in Calm     99% 0.25 in
00:38 64.8 °F 64.4 °F 30.27 in Calm     99% 0.20 in
00:43 64.8 °F 64.4 °F 30.26 in Calm     99% 0.12 in
00:48 64.6 °F 64.2 °F 30.26 in Calm     99% 0.07 in
00:53 64.6 °F 64.2 °F 30.27 in Calm     99% 0.07 in
00:58 64.6 °F 64.2 °F 30.27 in Calm     99% 0.07 in
01:04 64.6 °F 64.2 °F 30.27 in Calm     99% 0.08 in
01:09 64.8 °F 64.4 °F 30.26 in Calm     99% 0.09 in
01:14 64.6 °F 64.2 °F 30.27 in Calm     99% 0.10 in
01:19 64.6 °F 64.2 °F 30.27 in Calm     99% 0.09 in
01:29 64.6 °F 64.2 °F 30.26 in Calm     99% 0.09 in
01:34 64.6 °F 64.2 °F 30.26 in Calm     99% 0.09 in
01:44 64.6 °F 64.2 °F 30.27 in Calm     99% 0.09 in
01:49 64.6 °F 64.2 °F 30.27 in Calm     99% 0.08 in
01:59 64.4 °F 64.0 °F 30.26 in Calm     99% 0.10 in
02:09 64.2 °F 63.9 °F 30.26 in Calm     99% 0.12 in
02:14 64.4 °F 64.0 °F 30.26 in NNE 0.9 mph 1.0 mph 99% 0.13 in
02:24 64.2 °F 63.9 °F 30.25 in Calm     99% 0.17 in
02:29 64.2 °F 63.9 °F 30.25 in Calm   1.0 mph 99% 0.18 in
02:49 64.2 °F 63.9 °F 30.26 in Calm     99% 0.16 in
02:59 64.2 °F 63.9 °F 30.25 in Calm     99% 0.13 in
03:04 64.4 °F 64.0 °F 30.25 in Calm   1.0 mph 99% 0.11 in
03:09 64.2 °F 63.9 °F 30.26 in Calm     99% 0.08 in
03:19 64.2 °F 63.9 °F 30.25 in Calm     99% 0.04 in
03:34 64.2 °F 63.9 °F 30.25 in Calm     99% 0.03 in
03:39 64.0 °F 63.7 °F 30.24 in Calm   1.0 mph 99% 0.03 in
03:44 63.9 °F 63.5 °F 30.25 in Calm     99% 0.04 in
03:54 63.9 °F 63.5 °F 30.25 in Calm     99% 0.03 in
04:09 63.7 °F 63.3 °F 30.24 in Calm     99% 0.03 in
04:19 63.7 °F 63.3 °F 30.24 in Calm     99% 0.03 in
04:24 63.5 °F 63.1 °F 30.24 in Calm     99% 0.03 in
04:29 63.3 °F 63.0 °F 30.25 in Calm     99% 0.02 in
04:34 63.3 °F 63.0 °F 30.25 in Calm     99% 0.01 in
05:04 62.6 °F 62.2 °F 30.25 in Calm     99% 0.01 in
05:09 62.4 °F 62.1 °F 30.26 in Calm     99% 0.01 in
05:19 62.6 °F 62.2 °F 30.26 in Calm     99% 0.01 in
05:34 62.8 °F 62.4 °F 30.27 in Calm     99% 0.05 in
05:39 62.8 °F 62.4 °F 30.27 in Calm     99% 0.09 in
06:09 62.6 °F 62.2 °F 30.28 in Calm   1.0 mph 99% 0.17 in
06:14 62.4 °F 62.1 °F 30.28 in Calm     99% 0.19 in
06:19 62.4 °F 62.1 °F 30.27 in WNW 0.9 mph 1.0 mph 99% 0.20 in
06:24 62.4 °F 62.1 °F 30.28 in WNW 0.9 mph 1.0 mph 99% 0.20 in
06:29 62.4 °F 62.1 °F 30.28 in Calm     99% 0.19 in
06:34 62.2 °F 61.9 °F 30.28 in Calm     99% 0.17 in
06:39 62.4 °F 62.1 °F 30.28 in Calm     99% 0.14 in
06:44 62.4 °F 62.1 °F 30.28 in Calm     99% 0.13 in
06:49 62.2 °F 61.9 °F 30.29 in Calm     99% 0.11 in
06:54 62.2 °F 61.9 °F 30.29 in Calm     99% 0.11 in
06:59 62.2 °F 61.9 °F 30.28 in Calm   1.0 mph 99% 0.09 in
07:04 62.2 °F 61.9 °F 30.29 in Calm     99% 0.08 in
07:10 62.2 °F 61.9 °F 30.29 in Calm     99% 0.07 in
07:15 62.4 °F 62.1 °F 30.29 in Calm     99% 0.05 in
07:20 62.4 °F 62.1 °F 30.29 in Calm   1.0 mph 99% 0.04 in
07:25 62.4 °F 62.1 °F 30.29 in Calm     99% 0.03 in
07:30 62.4 °F 62.1 °F 30.29 in Calm     99% 0.03 in
07:35 62.4 °F 62.1 °F 30.29 in Calm     99% 0.03 in
07:40 62.4 °F 62.1 °F 30.29 in Calm   1.0 mph 99% 0.02 in
07:45 62.4 °F 62.1 °F 30.30 in WNW 2.0 mph 2.0 mph 99% 0.01 in
07:50 62.4 °F 62.1 °F 30.30 in Calm   1.0 mph 99% 0.01 in
07:55 62.6 °F 62.2 °F 30.30 in Calm     99% 0.01 in
08:10 63.3 °F 63.0 °F 30.31 in Calm     99% 0.00 in
08:15 64.0 °F 63.7 °F 30.31 in Calm   1.0 mph 99% 0.00 in
08:20 65.1 °F 64.8 °F 30.31 in Calm   1.0 mph 99% 0.00 in
08:25 65.8 °F 65.5 °F 30.31 in Calm   1.0 mph 99% 0.00 in
08:30 67.8 °F 67.5 °F 30.31 in Calm     99% 0.00 in
08:35 68.5 °F 67.6 °F 30.31 in Calm     97% 0.00 in
08:40 69.6 °F 68.4 °F 30.31 in Calm   2.0 mph 96% 0.00 in
08:50 68.4 °F 66.6 °F 30.31 in Calm     94% 0.00 in
09:05 66.4 °F 65.1 °F 30.31 in Calm   1.0 mph 96% 0.00 in
09:10 66.7 °F 65.5 °F 30.31 in Calm     96% 0.00 in
09:15 66.9 °F 65.7 °F 30.32 in Calm   1.0 mph 96% 0.00 in
09:20 67.3 °F 66.0 °F 30.31 in WNW 0.9 mph 1.0 mph 96% 0.00 in
09:25 68.0 °F 66.6 °F 30.31 in Calm   1.0 mph 95% 0.00 in
09:31 68.7 °F 66.9 °F 30.31 in WNW 0.9 mph 1.0 mph 94% 0.00 in
09:36 69.4 °F 67.6 °F 30.32 in Calm   1.0 mph 94% 0.00 in
09:41 69.3 °F 67.1 °F 30.31 in ESE 0.9 mph 2.0 mph 93% 0.00 in
09:46 69.3 °F 67.5 °F 30.31 in ESE 0.9 mph 2.0 mph 94% 0.00 in
09:56 69.1 °F 66.7 °F 30.31 in Calm   2.0 mph 92% 0.00 in
10:06 69.3 °F 67.1 °F 30.31 in Calm   1.0 mph 93% 0.00 in
10:11 70.2 °F 68.4 °F 30.31 in Calm   2.0 mph 94% 0.00 in
10:16 70.5 °F 68.0 °F 30.31 in Calm   3.0 mph 92% 0.00 in
10:21 71.2 °F 68.7 °F 30.31 in Calm   2.0 mph 92% 0.00 in
10:26 72.1 °F 69.6 °F 30.31 in East 0.9 mph 1.0 mph 92% 0.00 in
10:36 72.7 °F 68.9 °F 30.31 in WNW 0.9 mph 3.0 mph 88% 0.00 in
10:41 72.0 °F 68.5 °F 30.31 in ESE 2.0 mph 4.0 mph 89% 0.00 in
10:46 71.4 °F 68.4 °F 30.31 in Calm   4.0 mph 90% 0.01 in
10:51 70.7 °F 68.0 °F 30.31 in Calm   3.0 mph 91% 0.02 in
10:56 70.3 °F 68.5 °F 30.31 in Calm   1.0 mph 94% 0.03 in
11:01 70.3 °F 68.5 °F 30.31 in Calm   1.0 mph 94% 0.04 in
11:06 70.3 °F 68.5 °F 30.30 in Calm   1.0 mph 94% 0.04 in
11:11 71.1 °F 68.9 °F 30.30 in Calm   2.0 mph 93% 0.04 in
11:16 71.4 °F 68.9 °F 30.30 in WNW 2.0 mph 3.0 mph 92% 0.04 in
11:21 71.2 °F 68.5 °F 30.30 in WNW 0.9 mph 3.0 mph 91% 0.04 in
11:26 71.1 °F 67.6 °F 30.30 in Calm   4.0 mph 89% 0.04 in
11:31 70.9 °F 68.2 °F 30.31 in Calm   1.0 mph 91% 0.04 in
11:37 71.1 °F 68.0 °F 30.30 in Calm     90% 0.04 in
11:42 71.1 °F 67.6 °F 30.31 in NE 0.9 mph 4.0 mph 89% 0.04 in
11:47 71.4 °F 69.3 °F 30.30 in Calm   1.0 mph 93% 0.03 in
11:57 72.7 °F 68.5 °F 30.30 in NE 4.9 mph 5.0 mph 87% 0.01 in
12:02 72.3 °F 68.2 °F 30.30 in ENE 4.0 mph 5.0 mph 87% 0.00 in
12:07 72.1 °F 68.0 °F 30.30 in West 0.9 mph 1.0 mph 87% 0.00 in
12:12 72.0 °F 69.3 °F 30.30 in Calm     91% 0.00 in
12:17 71.8 °F 69.1 °F 30.29 in West 2.0 mph 2.0 mph 91% 0.00 in
12:22 71.2 °F 68.7 °F 30.30 in WNW 2.0 mph 2.0 mph 92% 0.00 in
12:27 71.1 °F 68.5 °F 30.29 in NW 0.9 mph 3.0 mph 92% 0.00 in
12:32 70.9 °F 68.2 °F 30.30 in NW 2.0 mph 6.0 mph 91% 0.00 in
12:37 71.1 °F 68.0 °F 30.29 in Calm   1.0 mph 90% 0.00 in
12:47 72.0 °F 67.5 °F 30.29 in ENE 4.9 mph 9.0 mph 86% 0.00 in
12:52 72.1 °F 67.5 °F 30.29 in NNE 2.9 mph 8.0 mph 85% 0.00 in
13:02 73.6 °F 67.5 °F 30.29 in NNE 2.9 mph 8.0 mph 81% 0.00 in
13:17 73.0 °F 67.3 °F 30.29 in NE 2.0 mph 6.0 mph 82% 0.00 in
13:27 72.9 °F 67.5 °F 30.29 in NE 4.9 mph 8.0 mph 83% 0.00 in
13:32 72.7 °F 67.3 °F 30.29 in ENE 2.9 mph 9.0 mph 83% 0.00 in
13:38 72.7 °F 66.9 °F 30.29 in NE 6.0 mph 10.0 mph 82% 0.00 in
13:48 72.1 °F 67.1 °F 30.29 in WNW 2.0 mph 3.0 mph 84% 0.00 in
13:53 72.0 °F 66.9 °F 30.29 in NW 2.0 mph 4.0 mph 84% 0.00 in
14:03 72.1 °F 66.7 °F 30.28 in WNW 2.9 mph 4.0 mph 83% 0.00 in
14:13 73.2 °F 68.2 °F 30.28 in SE 0.9 mph 2.0 mph 84% 0.00 in
14:23 73.6 °F 68.4 °F 30.27 in West 0.9 mph 1.0 mph 84% 0.00 in
14:33 73.9 °F 67.8 °F 30.27 in WSW 2.0 mph 3.0 mph 81% 0.00 in
14:38 73.9 °F 67.5 °F 30.27 in NE 0.9 mph 3.0 mph 80% 0.00 in
14:43 74.7 °F 68.7 °F 30.27 in WNW 2.0 mph 2.0 mph 82% 0.00 in
14:48 74.7 °F 66.6 °F 30.27 in NE 0.9 mph 5.0 mph 76% 0.00 in
14:53 75.0 °F 68.0 °F 30.27 in NW 2.0 mph 3.0 mph 79% 0.00 in
15:08 74.5 °F 66.4 °F 30.27 in NE 2.0 mph 3.0 mph 76% 0.00 in
15:13 74.5 °F 64.4 °F 30.27 in NNE 2.9 mph 9.0 mph 71% 0.00 in
15:23 73.0 °F 65.5 °F 30.27 in NE 4.0 mph 8.0 mph 77% 0.00 in
15:28 73.6 °F 64.8 °F 30.27 in ENE 4.0 mph 5.0 mph 74% 0.00 in
15:33 74.5 °F 65.7 °F 30.26 in NNE 0.9 mph 6.0 mph 74% 0.00 in
15:39 75.4 °F 66.6 °F 30.26 in NE 4.0 mph 7.0 mph 74% 0.00 in
15:44 75.9 °F 65.8 °F 30.26 in ESE 6.0 mph 13.0 mph 71% 0.00 in
15:59 75.2 °F 65.5 °F 30.25 in WSW 4.0 mph 7.0 mph 72% 0.00 in
16:04 75.6 °F 66.4 °F 30.25 in ENE 2.9 mph 11.0 mph 73% 0.00 in
16:19 75.7 °F 66.0 °F 30.25 in NE 2.0 mph 6.0 mph 72% 0.00 in
16:24 75.9 °F 65.8 °F 30.25 in NE 0.9 mph 9.0 mph 71% 0.00 in
16:29 76.5 °F 66.7 °F 30.25 in ENE 2.0 mph 11.0 mph 72% 0.00 in
16:34 76.6 °F 66.2 °F 30.25 in ENE 8.1 mph 9.0 mph 70% 0.00 in
16:39 75.9 °F 66.2 °F 30.25 in NNE 4.0 mph 8.0 mph 72% 0.00 in
16:49 75.4 °F 65.7 °F 30.25 in ESE 4.0 mph 11.0 mph 72% 0.00 in
16:54 74.8 °F 66.0 °F 30.25 in East 2.0 mph 6.0 mph 74% 0.00 in
17:19 76.3 °F 64.9 °F 30.24 in NE 4.0 mph 10.0 mph 68% 0.00 in
17:24 76.8 °F 65.8 °F 30.24 in ENE 6.9 mph 8.0 mph 69% 0.00 in
17:29 76.3 °F 64.6 °F 30.24 in South 4.9 mph 9.0 mph 67% 0.00 in
17:40 78.1 °F 66.2 °F 30.24 in West 0.9 mph 3.0 mph 67% 0.00 in
17:45 78.3 °F 65.5 °F 30.25 in SW 0.9 mph 6.0 mph 65% 0.00 in
17:55 76.6 °F 64.9 °F 30.25 in ENE 2.9 mph 6.0 mph 67% 0.00 in
18:00 76.1 °F 64.4 °F 30.25 in SE 4.0 mph 6.0 mph 67% 0.00 in
18:05 75.6 °F 64.2 °F 30.25 in NE 4.0 mph 5.0 mph 68% 0.00 in
18:10 75.6 °F 65.5 °F 30.25 in NE 2.0 mph 2.0 mph 71% 0.00 in
18:15 75.9 °F 67.1 °F 30.25 in Calm   3.0 mph 74% 0.00 in
18:20 75.7 °F 64.4 °F 30.25 in NE 4.0 mph 5.0 mph 68% 0.00 in
18:25 75.6 °F 65.5 °F 30.24 in NNE 4.0 mph 7.0 mph 71% 0.00 in
18:35 74.8 °F 64.0 °F 30.25 in ESE 4.0 mph 8.0 mph 69% 0.00 in
18:40 74.7 °F 64.2 °F 30.26 in ESE 0.9 mph 4.0 mph 70% 0.00 in
18:45 74.7 °F 65.1 °F 30.26 in Calm   4.0 mph 72% 0.00 in
18:50 74.7 °F 65.1 °F 30.25 in Calm   5.0 mph 72% 0.00 in
19:00 74.3 °F 64.2 °F 30.26 in Calm   1.0 mph 71% 0.00 in
19:05 74.1 °F 64.0 °F 30.27 in Calm   7.0 mph 71% 0.00 in
19:10 73.8 °F 63.7 °F 30.27 in West 0.9 mph 4.0 mph 71% 0.00 in
19:15 73.6 °F 64.4 °F 30.27 in NW 0.9 mph 6.0 mph 73% 0.00 in
19:20 73.0 °F 64.2 °F 30.27 in Calm   4.0 mph 74% 0.00 in
19:25 72.9 °F 64.0 °F 30.27 in NE 4.0 mph 5.0 mph 74% 0.00 in
19:35 72.7 °F 63.9 °F 30.28 in NE 4.0 mph 4.0 mph 74% 0.00 in
19:40 72.3 °F 63.5 °F 30.27 in East 0.9 mph 5.0 mph 74% 0.00 in
19:45 72.1 °F 64.6 °F 30.27 in Calm   3.0 mph 77% 0.00 in
19:50 71.2 °F 64.4 °F 30.27 in Calm   3.0 mph 79% 0.00 in
19:55 71.1 °F 64.9 °F 30.27 in SE 0.9 mph 2.0 mph 81% 0.00 in
20:00 70.5 °F 65.1 °F 30.28 in Calm   1.0 mph 83% 0.00 in
20:10 70.3 °F 64.6 °F 30.28 in NE 2.0 mph 4.0 mph 82% 0.00 in
20:15 70.2 °F 65.1 °F 30.29 in Calm   1.0 mph 84% 0.00 in
20:25 69.6 °F 64.9 °F 30.29 in Calm   1.0 mph 85% 0.00 in
20:30 69.3 °F 64.9 °F 30.29 in ENE 4.0 mph 4.0 mph 86% 0.00 in
20:35 69.3 °F 65.3 °F 30.29 in NE 6.9 mph 16.0 mph 87% 0.00 in
20:40 68.4 °F 64.4 °F 30.30 in East 2.9 mph 8.0 mph 87% 0.01 in
20:50 67.1 °F 64.4 °F 30.30 in NE 2.0 mph 5.0 mph 91% 0.05 in
20:55 66.7 °F 64.4 °F 30.30 in Calm   2.0 mph 92% 0.06 in
21:00 66.2 °F 64.4 °F 30.31 in Calm   1.0 mph 94% 0.07 in
21:05 65.8 °F 64.4 °F 30.31 in ESE 2.0 mph 2.0 mph 95% 0.07 in
21:10 65.8 °F 64.4 °F 30.31 in SE 0.9 mph 2.0 mph 95% 0.07 in
21:15 65.7 °F 64.4 °F 30.31 in Calm   1.0 mph 96% 0.07 in
21:20 65.7 °F 64.4 °F 30.32 in Calm   2.0 mph 96% 0.07 in
21:25 65.7 °F 64.4 °F 30.32 in Calm     96% 0.07 in
21:30 65.5 °F 64.2 °F 30.32 in Calm   1.0 mph 96% 0.07 in
21:35 65.3 °F 64.0 °F 30.32 in Calm   1.0 mph 96% 0.07 in
21:40 65.3 °F 64.4 °F 30.32 in Calm   1.0 mph 97% 0.06 in
21:51 65.1 °F 64.2 °F 30.32 in Calm   2.0 mph 97% 0.02 in
21:56 65.1 °F 64.2 °F 30.32 in Calm     97% 0.01 in
22:01 64.9 °F 64.0 °F 30.33 in Calm   1.0 mph 97% 0.00 in
22:06 64.9 °F 64.0 °F 30.33 in Calm     97% 0.00 in
22:11 64.9 °F 64.4 °F 30.33 in Calm     98% 0.00 in
22:26 64.9 °F 64.4 °F 30.34 in ESE 0.9 mph 2.0 mph 98% 0.00 in
22:31 64.9 °F 64.4 °F 30.33 in Calm   1.0 mph 98% 0.00 in
22:36 64.9 °F 64.4 °F 30.33 in Calm   1.0 mph 98% 0.00 in
22:41 64.8 °F 64.2 °F 30.34 in SE 0.9 mph 1.0 mph 98% 0.00 in
22:46 64.6 °F 64.0 °F 30.34 in Calm     98% 0.00 in
22:51 64.6 °F 64.0 °F 30.35 in Calm     98% 0.00 in
23:01 64.6 °F 64.0 °F 30.35 in Calm   2.0 mph 98% 0.24 in
23:06 64.6 °F 64.0 °F 30.35 in ESE 0.9 mph 1.0 mph 98% 0.24 in
23:11 64.2 °F 63.7 °F 30.35 in Calm     98% 0.24 in
23:31 64.2 °F 63.7 °F 30.36 in Calm     98% 0.24 in
23:36 64.2 °F 63.7 °F 30.36 in Calm   1.0 mph 98% 0.24 in
23:41 64.2 °F 63.7 °F 30.36 in Calm     98% 0.24 in
WheeWeather.com
Compliments of Weather Underground - 2 mb